createdAt,value
2018-07-31T00:01:52.117Z,100093.89
2018-07-31T00:04:20.129Z,100086.37
2018-07-31T00:06:47.055Z,100086.14
2018-07-31T00:09:13.960Z,100084.56
2018-07-31T00:11:40.915Z,100083.17
2018-07-31T00:14:07.838Z,100081.63
2018-07-31T00:16:34.742Z,100079.97
2018-07-31T00:19:01.693Z,100085.52
2018-07-31T00:21:28.666Z,100089.05
2018-07-31T00:23:55.587Z,100084.33
2018-07-31T00:26:22.480Z,100080.25
2018-07-31T00:28:49.426Z,100083.46
2018-07-31T00:31:16.347Z,100082.03
2018-07-31T00:33:43.276Z,100081.30
2018-07-31T00:36:10.207Z,100077.66
2018-07-31T00:38:37.124Z,100082.28
2018-07-31T00:41:04.054Z,100079.66
2018-07-31T00:43:31.962Z,100081.08
2018-07-31T00:45:58.868Z,100078.66
2018-07-31T00:48:25.844Z,100080.48
2018-07-31T00:50:52.772Z,100078.73
2018-07-31T00:53:19.690Z,100076.80
2018-07-31T00:55:46.595Z,100076.21
2018-07-31T00:58:13.523Z,100066.70
2018-07-31T01:00:40.445Z,100069.76
2018-07-31T01:03:07.393Z,100068.52
2018-07-31T01:05:35.274Z,100071.00
2018-07-31T01:08:02.296Z,100072.81
2018-07-31T01:10:29.249Z,100069.20
2018-07-31T01:12:56.168Z,100073.64
2018-07-31T01:15:23.110Z,100073.37
2018-07-31T01:17:50.009Z,100077.41
2018-07-31T01:20:16.918Z,100082.98
2018-07-31T01:22:43.880Z,100069.64
2018-07-31T01:25:10.798Z,100071.19
2018-07-31T01:27:37.749Z,100064.98
2018-07-31T01:30:04.862Z,100068.45
2018-07-31T01:32:31.814Z,100070.20
2018-07-31T01:34:58.748Z,100069.95
2018-07-31T01:37:25.681Z,100065.54
2018-07-31T01:39:52.670Z,100068.56
2018-07-31T01:42:19.658Z,100070.48
2018-07-31T01:44:46.573Z,100074.67
2018-07-31T01:47:13.531Z,100072.20
2018-07-31T01:49:40.484Z,100069.54
2018-07-31T01:52:07.740Z,100071.28
2018-07-31T01:54:34.680Z,100069.30
2018-07-31T01:57:01.592Z,100071.84
2018-07-31T01:59:28.498Z,100066.41
2018-07-31T02:01:55.409Z,100064.33
2018-07-31T02:04:22.338Z,100058.83
2018-07-31T02:06:49.261Z,100056.41
2018-07-31T02:09:16.180Z,100065.44
2018-07-31T02:11:43.094Z,100052.66
2018-07-31T02:14:10.000Z,100054.52
2018-07-31T02:16:36.924Z,100047.37
2018-07-31T02:19:03.858Z,100052.86
2018-07-31T02:21:30.801Z,100049.70
2018-07-31T02:23:57.723Z,100050.30
2018-07-31T02:26:24.618Z,100056.68
2018-07-31T02:28:51.542Z,100060.08
2018-07-31T02:31:18.449Z,100068.16
2018-07-31T02:33:45.386Z,100061.89
2018-07-31T02:36:12.300Z,100053.48
2018-07-31T02:38:39.226Z,100057.93
2018-07-31T02:41:06.248Z,100056.27
2018-07-31T02:43:33.196Z,100057.67
2018-07-31T02:46:00.158Z,100059.30
2018-07-31T02:48:27.084Z,100061.03
2018-07-31T02:50:54.011Z,100062.87
2018-07-31T02:53:20.985Z,100068.71
2018-07-31T02:55:47.933Z,100062.02
2018-07-31T02:58:14.862Z,100051.55
2018-07-31T03:00:41.768Z,100049.25
2018-07-31T03:03:08.686Z,100060.21
2018-07-31T03:05:35.618Z,100063.30
2018-07-31T03:08:02.600Z,100054.49
2018-07-31T03:10:29.493Z,100057.50
2018-07-31T03:12:56.426Z,100054.70
2018-07-31T03:15:23.336Z,100063.19
2018-07-31T03:17:50.285Z,100065.38
2018-07-31T03:20:17.235Z,100064.03
2018-07-31T03:22:44.112Z,100070.19
2018-07-31T03:25:11.034Z,100066.23
2018-07-31T03:27:37.973Z,100067.27
2018-07-31T03:30:04.972Z,100072.22
2018-07-31T03:32:31.916Z,100077.70
2018-07-31T03:34:58.847Z,100074.38
2018-07-31T03:37:25.750Z,100068.64
2018-07-31T03:39:52.682Z,100066.30
2018-07-31T03:42:19.635Z,100062.39
2018-07-31T03:44:46.676Z,100068.80
2018-07-31T03:47:13.603Z,100069.94
2018-07-31T03:49:42.444Z,100068.16
2018-07-31T03:52:09.385Z,100065.53
2018-07-31T03:54:36.362Z,100061.88
2018-07-31T03:57:03.352Z,100060.55
2018-07-31T03:59:31.466Z,100066.77
2018-07-31T04:01:58.578Z,100066.67
2018-07-31T04:04:28.740Z,100065.43
2018-07-31T04:06:55.646Z,100074.80
2018-07-31T04:09:22.585Z,100076.36
2018-07-31T04:11:49.500Z,100073.90
2018-07-31T04:14:16.450Z,100082.86
2018-07-31T04:16:43.341Z,100089.22
2018-07-31T04:19:10.284Z,100091.86
2018-07-31T04:21:37.172Z,100089.31
2018-07-31T04:24:04.060Z,100086.16
2018-07-31T04:26:30.935Z,100083.55
2018-07-31T04:28:57.801Z,100093.14
2018-07-31T04:31:24.680Z,100092.11
2018-07-31T04:33:51.605Z,100086.66
2018-07-31T04:36:18.656Z,100085.72
2018-07-31T04:38:45.464Z,100086.01
2018-07-31T04:41:12.409Z,100097.22
2018-07-31T04:43:39.257Z,100101.30
2018-07-31T04:46:06.228Z,100094.92
2018-07-31T04:48:33.116Z,100103.98
2018-07-31T04:50:59.992Z,100093.04
2018-07-31T04:53:26.934Z,100100.82
2018-07-31T04:55:53.839Z,100093.95
2018-07-31T04:58:20.759Z,100098.44
2018-07-31T05:00:47.637Z,100096.79
2018-07-31T05:03:14.520Z,100097.31
2018-07-31T05:05:41.413Z,100103.77
2018-07-31T05:08:08.363Z,100103.53
2018-07-31T05:10:35.293Z,100094.84
2018-07-31T05:13:02.421Z,100104.48
2018-07-31T05:15:29.286Z,100108.50
2018-07-31T05:17:56.180Z,100105.80
2018-07-31T05:20:23.056Z,100110.67
2018-07-31T05:22:49.978Z,100114.63
2018-07-31T05:25:16.972Z,100114.09
2018-07-31T05:27:43.869Z,100112.23
2018-07-31T05:30:10.747Z,100119.95
2018-07-31T05:32:37.872Z,100127.02
2018-07-31T05:35:05.068Z,100122.30
2018-07-31T05:37:31.948Z,100122.56
2018-07-31T05:39:58.834Z,100128.45
2018-07-31T05:42:25.712Z,100133.72
2018-07-31T05:44:52.616Z,100129.38
2018-07-31T05:47:19.505Z,100132.30
2018-07-31T05:49:46.424Z,100134.25
2018-07-31T05:52:13.304Z,100127.17
2018-07-31T05:54:40.209Z,100133.55
2018-07-31T05:57:07.096Z,100139.03
2018-07-31T05:59:33.972Z,100130.49
2018-07-31T06:02:00.891Z,100131.77
2018-07-31T06:04:27.773Z,100128.80
2018-07-31T06:06:54.650Z,100132.85
2018-07-31T06:09:21.593Z,100139.69
2018-07-31T06:11:48.488Z,100137.83
2018-07-31T06:14:15.444Z,100134.52
2018-07-31T06:16:42.324Z,100135.16
2018-07-31T06:19:09.380Z,100138.16
2018-07-31T06:21:36.630Z,100135.16
2018-07-31T06:24:03.528Z,100141.55
2018-07-31T06:26:30.413Z,100149.41
2018-07-31T06:28:57.320Z,100143.77
2018-07-31T06:31:24.242Z,100144.84
2018-07-31T06:33:51.137Z,100143.17
2018-07-31T06:36:18.088Z,100153.17
2018-07-31T06:38:44.981Z,100151.34
2018-07-31T06:41:11.884Z,100157.14
2018-07-31T06:43:38.760Z,100155.53
2018-07-31T06:46:05.663Z,100167.61
2018-07-31T06:48:32.568Z,100164.19
2018-07-31T06:50:59.468Z,100170.15
2018-07-31T06:53:26.364Z,100174.46
2018-07-31T06:55:53.271Z,100171.52
2018-07-31T06:58:20.177Z,100169.16
2018-07-31T07:00:47.077Z,100167.01
2018-07-31T07:03:13.969Z,100163.02
2018-07-31T07:05:40.850Z,100167.31
2018-07-31T07:08:10.753Z,100171.03
2018-07-31T07:10:37.748Z,100166.46
2018-07-31T07:13:04.664Z,100169.86
2018-07-31T07:15:31.585Z,100169.59
2018-07-31T07:17:58.482Z,100169.27
2018-07-31T07:20:25.424Z,100172.22
2018-07-31T07:22:52.331Z,100175.98
2018-07-31T07:25:19.216Z,100177.27
2018-07-31T07:27:46.168Z,100182.42
2018-07-31T07:30:13.009Z,100180.02
2018-07-31T07:32:39.888Z,100184.20
2018-07-31T07:35:07.842Z,100184.42
2018-07-31T07:37:34.724Z,100180.45
2018-07-31T07:40:01.647Z,100181.38
2018-07-31T07:42:28.537Z,100178.36
2018-07-31T07:44:55.410Z,100174.70
2018-07-31T07:47:22.300Z,100181.40
2018-07-31T07:49:49.201Z,100178.33
2018-07-31T07:52:16.092Z,100178.53
2018-07-31T07:54:43.077Z,100178.95
2018-07-31T07:57:09.993Z,100185.28
2018-07-31T07:59:37.320Z,100177.19
2018-07-31T08:02:04.230Z,100182.72
2018-07-31T08:04:31.972Z,100180.13
2018-07-31T08:06:58.895Z,100185.15
2018-07-31T08:09:25.788Z,100186.14
2018-07-31T08:11:52.700Z,100179.27
2018-07-31T08:14:19.621Z,100182.83
2018-07-31T08:16:46.525Z,100190.23
2018-07-31T08:19:13.423Z,100181.62
2018-07-31T08:21:40.323Z,100184.68
2018-07-31T08:24:07.204Z,100182.06
2018-07-31T08:26:34.280Z,100187.16
2018-07-31T08:29:01.167Z,100187.59
2018-07-31T08:31:28.057Z,100197.60
2018-07-31T08:33:54.952Z,100193.52
2018-07-31T08:36:21.852Z,100193.41
2018-07-31T08:38:48.774Z,100197.31
2018-07-31T08:41:15.688Z,100192.27
2018-07-31T08:43:42.600Z,100201.48
2018-07-31T08:46:09.564Z,100198.61
2018-07-31T08:48:40.199Z,100207.63
2018-07-31T08:51:08.133Z,100197.17
2018-07-31T08:53:36.089Z,100198.69
2018-07-31T08:56:03.096Z,100201.56
2018-07-31T08:58:42.548Z,100193.72
2018-07-31T09:01:09.483Z,100198.31
2018-07-31T09:03:36.444Z,100200.25
2018-07-31T09:06:03.823Z,100200.80
2018-07-31T09:08:31.568Z,100206.70
2018-07-31T09:10:58.344Z,100204.38
2018-07-31T09:13:33.129Z,100210.20
2018-07-31T09:16:00.010Z,100201.80
2018-07-31T09:18:26.914Z,100210.59
2018-07-31T09:20:53.977Z,100207.11
2018-07-31T09:23:20.925Z,100201.13
2018-07-31T09:25:48.540Z,100201.33
2018-07-31T09:28:16.857Z,100198.16
2018-07-31T09:30:49.775Z,100199.58
2018-07-31T09:33:16.620Z,100198.72
2018-07-31T09:35:44.543Z,100200.52
2018-07-31T09:38:11.631Z,100196.67
2018-07-31T09:40:39.193Z,100192.96
2018-07-31T09:43:06.025Z,100207.63
2018-07-31T09:45:32.916Z,100198.47
2018-07-31T09:47:59.879Z,100197.78
2018-07-31T09:50:26.879Z,100202.52
2018-07-31T09:52:53.897Z,100197.68
2018-07-31T09:55:20.788Z,100205.50
2018-07-31T09:57:47.689Z,100199.48
2018-07-31T10:00:17.924Z,100189.17
2018-07-31T10:02:44.980Z,100187.15
2018-07-31T10:05:11.968Z,100188.08
2018-07-31T10:07:38.876Z,100179.77
2018-07-31T10:10:05.770Z,100186.31
2018-07-31T10:12:32.686Z,100181.97
2018-07-31T10:14:59.569Z,100186.80
2018-07-31T10:17:26.493Z,100191.80
2018-07-31T10:19:53.428Z,100183.77
2018-07-31T10:22:20.341Z,100187.11
2018-07-31T10:24:47.244Z,100176.40
2018-07-31T10:27:14.145Z,100179.73
2018-07-31T10:29:41.088Z,100176.66
2018-07-31T10:32:08.017Z,100183.98
2018-07-31T10:34:34.924Z,100175.87
2018-07-31T10:37:01.821Z,100180.67
2018-07-31T10:39:28.751Z,100186.23
2018-07-31T10:41:55.681Z,100176.63
2018-07-31T10:44:22.631Z,100180.09
2018-07-31T10:46:49.520Z,100185.91
2018-07-31T10:49:16.429Z,100179.70
2018-07-31T10:51:44.114Z,100171.24
2018-07-31T10:54:11.485Z,100182.98
2018-07-31T10:56:39.535Z,100181.30
2018-07-31T10:59:07.336Z,100181.42
2018-07-31T11:01:34.290Z,100177.93
2018-07-31T11:04:01.344Z,100175.87
2018-07-31T11:06:28.209Z,100167.05
2018-07-31T11:08:55.126Z,100163.09
2018-07-31T11:11:22.135Z,100160.36
2018-07-31T11:13:49.056Z,100168.59
2018-07-31T11:16:16.033Z,100165.09
2018-07-31T11:18:43.604Z,100159.08
2018-07-31T11:21:10.609Z,100160.38
2018-07-31T11:23:37.536Z,100170.19
2018-07-31T11:26:04.674Z,100160.95
2018-07-31T11:28:31.631Z,100159.17
2018-07-31T11:30:58.648Z,100162.30
2018-07-31T11:33:26.661Z,100159.01
2018-07-31T11:35:53.640Z,100154.11
2018-07-31T11:38:21.215Z,100156.31
2018-07-31T11:40:48.716Z,100154.74
2018-07-31T11:43:15.634Z,100149.53
2018-07-31T11:45:42.661Z,100139.80
2018-07-31T11:48:09.550Z,100140.55
2018-07-31T11:50:36.597Z,100136.86
2018-07-31T11:53:03.525Z,100136.55
2018-07-31T11:55:30.523Z,100125.16
2018-07-31T11:57:57.440Z,100127.88
2018-07-31T12:00:25.549Z,100123.99
2018-07-31T12:02:52.592Z,100127.78
2018-07-31T12:05:19.609Z,100130.39
2018-07-31T12:07:46.570Z,100121.27
2018-07-31T12:10:13.546Z,100123.67
2018-07-31T12:12:40.592Z,100126.69
2018-07-31T12:15:07.551Z,100125.89
2018-07-31T12:17:35.521Z,100121.83
2018-07-31T12:20:02.579Z,100123.27
2018-07-31T12:22:29.579Z,100129.67
2018-07-31T12:24:56.517Z,100127.70
2018-07-31T12:27:23.528Z,100126.47
2018-07-31T12:29:50.541Z,100131.09
2018-07-31T12:32:17.509Z,100132.27
2018-07-31T12:34:44.464Z,100130.59
2018-07-31T12:37:11.501Z,100120.30
2018-07-31T12:39:38.504Z,100119.52
2018-07-31T12:42:05.390Z,100119.77
2018-07-31T12:44:32.327Z,100128.13
2018-07-31T12:46:59.341Z,100125.03
2018-07-31T12:49:26.249Z,100121.83
2018-07-31T12:51:53.217Z,100121.22
2018-07-31T12:54:20.137Z,100124.73
2018-07-31T12:56:47.076Z,100119.80
2018-07-31T12:59:13.977Z,100121.34
2018-07-31T13:01:40.864Z,100118.47
2018-07-31T13:04:08.849Z,100127.25
2018-07-31T13:06:35.854Z,100130.17
2018-07-31T13:09:02.998Z,100120.75
2018-07-31T13:11:29.890Z,100119.58
2018-07-31T13:13:56.784Z,100114.70
2018-07-31T13:16:23.688Z,100123.09
2018-07-31T13:18:52.606Z,100117.00
2018-07-31T13:21:19.497Z,100117.08
2018-07-31T13:23:46.415Z,100114.52
2018-07-31T13:26:13.329Z,100118.31
2018-07-31T13:28:40.232Z,100115.50
2018-07-31T13:31:07.139Z,100115.85
2018-07-31T13:33:34.036Z,100107.74
2018-07-31T13:36:01.101Z,100114.16
2018-07-31T13:38:28.021Z,100119.11
2018-07-31T13:40:54.909Z,100107.14
2018-07-31T13:43:21.838Z,100113.22
2018-07-31T13:45:48.696Z,100108.31
2018-07-31T13:48:15.607Z,100105.18
2018-07-31T13:50:43.554Z,100109.22
2018-07-31T13:53:10.460Z,100104.75
2018-07-31T13:55:37.361Z,100107.45
2018-07-31T13:58:04.301Z,100102.20
2018-07-31T14:00:31.197Z,100108.22
2018-07-31T14:02:58.100Z,100105.88
2018-07-31T14:05:25.011Z,100112.23
2018-07-31T14:07:51.912Z,100111.15
2018-07-31T14:10:18.802Z,100111.96
2018-07-31T14:12:45.734Z,100109.63
2018-07-31T14:15:12.596Z,100104.05
2018-07-31T14:17:39.527Z,100106.43
2018-07-31T14:20:06.394Z,100105.74
2018-07-31T14:22:33.329Z,100115.03
2018-07-31T14:25:00.237Z,100116.86
2018-07-31T14:27:27.135Z,100113.74
2018-07-31T14:29:54.028Z,100114.80
2018-07-31T14:32:20.921Z,100114.30
2018-07-31T14:34:47.845Z,100111.49
2018-07-31T14:37:14.766Z,100111.16
2018-07-31T14:39:41.665Z,100101.34
2018-07-31T14:42:08.589Z,100104.00
2018-07-31T14:44:35.476Z,100112.08
2018-07-31T14:47:02.381Z,100115.93
2018-07-31T14:49:29.260Z,100110.34
2018-07-31T14:51:56.172Z,100115.59
2018-07-31T14:54:23.077Z,100106.78
2018-07-31T14:56:49.984Z,100113.44
2018-07-31T14:59:16.887Z,100114.53
2018-07-31T15:01:43.798Z,100114.81
2018-07-31T15:04:10.691Z,100119.98
2018-07-31T15:06:37.609Z,100115.19
2018-07-31T15:09:07.251Z,100114.86
2018-07-31T15:11:34.164Z,100112.27
2018-07-31T15:14:01.076Z,100120.27
2018-07-31T15:16:27.993Z,100108.92
2018-07-31T15:18:54.902Z,100114.53
2018-07-31T15:21:21.881Z,100112.69
2018-07-31T15:23:48.788Z,100109.02
2018-07-31T15:26:15.669Z,100109.08
2018-07-31T15:28:42.584Z,100116.73
2018-07-31T15:31:09.476Z,100111.61
2018-07-31T15:33:36.387Z,100105.00
2018-07-31T15:36:03.304Z,100105.97
2018-07-31T15:38:30.199Z,100114.06
2018-07-31T15:40:57.100Z,100110.83
2018-07-31T15:43:27.038Z,100118.34
2018-07-31T15:45:54.920Z,100117.74
2018-07-31T15:48:21.816Z,100117.63
2018-07-31T15:50:48.716Z,100117.01
2018-07-31T15:53:15.654Z,100116.48
2018-07-31T15:55:42.580Z,100105.27
2018-07-31T15:58:09.546Z,100102.55
2018-07-31T16:00:36.404Z,100108.86
2018-07-31T16:03:03.388Z,100105.46
2018-07-31T16:05:30.279Z,100106.23
2018-07-31T16:07:57.166Z,100103.20
2018-07-31T16:10:24.184Z,100107.78
2018-07-31T16:12:51.095Z,100102.86
2018-07-31T16:15:18.011Z,100102.78
2018-07-31T16:17:45.106Z,100102.12
2018-07-31T16:20:12.016Z,100096.50
2018-07-31T16:22:38.887Z,100099.03
2018-07-31T16:25:06.045Z,100095.72
2018-07-31T16:27:32.944Z,100097.89
2018-07-31T16:29:59.944Z,100087.21
2018-07-31T16:32:26.885Z,100091.94
2018-07-31T16:34:53.791Z,100096.29
2018-07-31T16:37:20.717Z,100084.04
2018-07-31T16:39:47.622Z,100086.08
2018-07-31T16:42:14.508Z,100089.53
2018-07-31T16:44:41.404Z,100095.05
2018-07-31T16:47:08.346Z,100094.34
2018-07-31T16:49:38.288Z,100095.33
2018-07-31T16:52:05.244Z,100100.73
2018-07-31T16:54:32.171Z,100102.70
2018-07-31T16:56:59.084Z,100102.66
2018-07-31T16:59:26.016Z,100102.05
2018-07-31T17:01:54.005Z,100100.73
2018-07-31T17:04:24.979Z,100099.92
2018-07-31T17:06:51.879Z,100097.36
2018-07-31T17:09:19.931Z,100097.30
2018-07-31T17:11:46.941Z,100101.41
2018-07-31T17:14:13.988Z,100100.81
2018-07-31T17:16:40.947Z,100100.34
2018-07-31T17:19:07.896Z,100106.05
2018-07-31T17:21:38.607Z,100101.55
2018-07-31T17:24:08.441Z,100103.61
2018-07-31T17:26:36.502Z,100110.38
2018-07-31T17:29:03.459Z,100114.44
2018-07-31T17:31:30.461Z,100122.14
2018-07-31T17:33:57.445Z,100118.47
2018-07-31T17:36:24.761Z,100126.75
2018-07-31T17:38:51.780Z,100129.66
2018-07-31T17:41:18.743Z,100130.66
2018-07-31T17:43:46.427Z,100132.04
2018-07-31T17:46:14.428Z,100134.56
2018-07-31T17:48:44.424Z,100128.81
2018-07-31T17:51:12.477Z,100134.98
2018-07-31T17:53:40.428Z,100143.24
2018-07-31T17:56:08.980Z,100138.39
2018-07-31T17:58:35.949Z,100142.48
2018-07-31T18:01:03.939Z,100151.34
2018-07-31T18:03:31.561Z,100147.25
2018-07-31T18:05:59.508Z,100153.41
2018-07-31T18:08:26.492Z,100157.16
2018-07-31T18:10:53.466Z,100163.50
2018-07-31T18:13:21.468Z,100168.36
2018-07-31T18:15:48.719Z,100165.77
2018-07-31T18:18:15.755Z,100168.77
2018-07-31T18:20:42.784Z,100159.53
2018-07-31T18:23:14.356Z,100163.16
2018-07-31T18:25:44.355Z,100164.00
2018-07-31T18:28:12.375Z,100168.36
2018-07-31T18:30:40.391Z,100167.59
2018-07-31T18:33:09.000Z,100174.89
2018-07-31T18:35:46.466Z,100166.99
2018-07-31T18:38:21.483Z,100180.12
2018-07-31T18:40:49.440Z,100185.02
2018-07-31T18:43:21.289Z,100184.46
2018-07-31T18:45:48.400Z,100189.53
2018-07-31T18:48:17.509Z,100179.98
2018-07-31T18:50:44.381Z,100185.97
2018-07-31T18:53:11.306Z,100182.25
2018-07-31T18:55:38.188Z,100181.08
2018-07-31T18:58:06.256Z,100187.95
2018-07-31T19:00:33.216Z,100185.51
2018-07-31T19:03:03.293Z,100183.89
2018-07-31T19:05:30.317Z,100179.36
2018-07-31T19:07:57.232Z,100186.05
2018-07-31T19:10:26.025Z,100192.17
2018-07-31T19:12:52.972Z,100193.77
2018-07-31T19:15:20.212Z,100195.07
2018-07-31T19:17:47.148Z,100200.91
2018-07-31T19:20:14.075Z,100189.41
2018-07-31T19:22:41.003Z,100193.95
2018-07-31T19:25:07.942Z,100203.73
2018-07-31T19:27:34.952Z,100202.94
2018-07-31T19:30:01.902Z,100203.47
2018-07-31T19:32:28.884Z,100199.19
2018-07-31T19:34:55.827Z,100208.19
2018-07-31T19:37:22.748Z,100210.17
2018-07-31T19:39:49.720Z,100217.81
2018-07-31T19:42:16.670Z,100218.23
2018-07-31T19:44:43.543Z,100223.57
2018-07-31T19:47:10.526Z,100222.17
2018-07-31T19:49:37.450Z,100220.19
2018-07-31T19:52:04.801Z,100223.19
2018-07-31T19:54:31.704Z,100226.79
2018-07-31T19:56:58.620Z,100226.67
2018-07-31T19:59:25.525Z,100229.30
2018-07-31T20:01:52.440Z,100230.05
2018-07-31T20:04:19.500Z,100231.05
2018-07-31T20:06:46.405Z,100228.48
2018-07-31T20:09:19.138Z,100230.12
2018-07-31T20:11:46.045Z,100227.78
2018-07-31T20:14:13.004Z,100229.64
2018-07-31T20:16:39.941Z,100227.75
2018-07-31T20:19:06.829Z,100231.91
2018-07-31T20:21:33.841Z,100242.71
2018-07-31T20:24:00.792Z,100240.96
2018-07-31T20:26:27.812Z,100241.48
2018-07-31T20:28:54.817Z,100247.03
2018-07-31T20:31:21.732Z,100241.42
2018-07-31T20:33:48.648Z,100241.80
2018-07-31T20:36:15.556Z,100247.49
2018-07-31T20:38:42.466Z,100247.00
2018-07-31T20:41:09.376Z,100251.65
2018-07-31T20:43:36.289Z,100250.90
2018-07-31T20:46:03.352Z,100248.49
2018-07-31T20:48:30.264Z,100257.47
2018-07-31T20:50:57.154Z,100257.02
2018-07-31T20:53:24.068Z,100258.16
2018-07-31T20:55:51.052Z,100258.33
2018-07-31T20:58:17.995Z,100257.70
2018-07-31T21:00:44.884Z,100261.60
2018-07-31T21:03:11.775Z,100255.42
2018-07-31T21:05:38.659Z,100258.70
2018-07-31T21:08:05.562Z,100259.04
2018-07-31T21:10:32.451Z,100257.56
2018-07-31T21:12:59.332Z,100267.95
2018-07-31T21:15:26.230Z,100266.18
2018-07-31T21:17:53.144Z,100274.03
2018-07-31T21:20:20.040Z,100267.38
2018-07-31T21:22:46.937Z,100271.22
2018-07-31T21:25:13.898Z,100278.09
2018-07-31T21:27:40.804Z,100280.84
2018-07-31T21:30:07.925Z,100275.96
2018-07-31T21:32:34.864Z,100279.77
2018-07-31T21:35:01.773Z,100275.77
2018-07-31T21:37:28.656Z,100278.66
2018-07-31T21:39:55.548Z,100277.09
2018-07-31T21:42:22.437Z,100276.31
2018-07-31T21:44:50.328Z,100277.63
2018-07-31T21:47:17.209Z,100277.63
2018-07-31T21:49:44.131Z,100283.89
2018-07-31T21:52:11.068Z,100281.91
2018-07-31T21:54:38.244Z,100284.87
2018-07-31T21:57:05.136Z,100286.05
2018-07-31T21:59:32.068Z,100291.81
2018-07-31T22:01:59.050Z,100300.56
2018-07-31T22:04:26.036Z,100293.82
2018-07-31T22:06:52.916Z,100310.25
2018-07-31T22:09:25.642Z,100310.98
2018-07-31T22:11:53.496Z,100307.83
2018-07-31T22:14:20.385Z,100308.92
2018-07-31T22:16:47.300Z,100307.70
2018-07-31T22:19:14.187Z,100301.08
2018-07-31T22:21:41.067Z,100310.05
2018-07-31T22:24:07.952Z,100312.83
2018-07-31T22:26:34.832Z,100306.70
2018-07-31T22:29:01.720Z,100306.57
2018-07-31T22:31:28.637Z,100311.02
2018-07-31T22:33:55.516Z,100310.39
2018-07-31T22:36:22.424Z,100308.72
2018-07-31T22:38:49.328Z,100314.98
2018-07-31T22:41:16.255Z,100314.13
2018-07-31T22:43:43.200Z,100316.52
2018-07-31T22:46:10.046Z,100312.72
2018-07-31T22:48:36.933Z,100321.67
2018-07-31T22:51:03.863Z,100318.54
2018-07-31T22:53:30.816Z,100321.88
2018-07-31T22:55:57.697Z,100324.63
2018-07-31T22:58:24.604Z,100327.73
2018-07-31T23:00:51.480Z,100331.95
2018-07-31T23:03:18.372Z,100332.73
2018-07-31T23:05:45.271Z,100335.83
2018-07-31T23:08:13.028Z,100336.15
2018-07-31T23:10:39.912Z,100330.41
2018-07-31T23:13:06.800Z,100330.92
2018-07-31T23:15:33.672Z,100330.02
2018-07-31T23:18:00.572Z,100324.02
2018-07-31T23:20:27.465Z,100326.36
2018-07-31T23:22:54.404Z,100326.33
2018-07-31T23:25:21.301Z,100326.72
2018-07-31T23:27:48.213Z,100327.70
2018-07-31T23:30:15.099Z,100328.28
2018-07-31T23:32:42.120Z,100327.78
2018-07-31T23:35:09.039Z,100322.41
2018-07-31T23:37:36.937Z,100325.17
2018-07-31T23:40:04.694Z,100337.73
2018-07-31T23:42:32.018Z,100331.01
2018-07-31T23:44:59.006Z,100333.59
2018-07-31T23:47:26.930Z,100321.27
2018-07-31T23:49:53.812Z,100321.19
2018-07-31T23:52:20.738Z,100319.91
2018-07-31T23:54:47.755Z,100317.44
2018-07-31T23:57:14.814Z,100332.10
2018-07-31T23:59:41.700Z,100325.83
